Retalhuleu, Guatemala
Current Conditions -  °F | °C
As of 10:55 AM on Friday 28 Nov 2014 (Local Time) from MMTP Reporting Station
Broken Clouds Broken Clouds  
Wind Chill: 86°   Ceiling: 1500
Heat Index: 95°   Visibility: 10mi
Dew Point: 75°   Wind: 0mph
Humidity: 70%   Direction: NA
Pressure: 29.88"   Gusts: NA
Location:  14.54°N, 91.69°W
Report Text: MMTP 281655Z 00000KT 10SM BKN015 30/24 A2988 RMK 8/100 HZY
Loading
Personal Weather Stations






























Interactive Weather Map New forecast layout! Learn more

10-Day Weather Forecast

Advertisements
Track Severe Weather on mobile